Time;durP1;ratioP1;P1;durP2;ratioP2;P2;SDS_P1;SDS_P2;PMS_P1;PMS_P2;Temp;Humidity;BMP_temperature;BMP_pressure;BME280_temperature;BME280_humidity;BME280_pressure;Samples;Min_cycle;Max_cycle;Signal;HPM_P1;HPM_P2
2022/12/01 00:00:53;;;;;;;0.83;0.40;;;;;;;4.83;100.00;94675.91;5053190;28;20211;-61
2022/12/01 00:03:18;;;;;;;0.40;0.40;;;;;;;4.87;100.00;94682.38;5053527;28;20243;-64
2022/12/01 00:05:44;;;;;;;0.40;0.40;;;;;;;4.90;100.00;94685.53;5053206;28;20220;-65
2022/12/01 00:08:09;;;;;;;0.93;0.43;;;;;;;4.92;100.00;94691.28;5035223;28;20297;-65
2022/12/01 00:10:35;;;;;;;0.80;0.43;;;;;;;4.87;100.00;94683.19;5053105;28;20207;-65
2022/12/01 00:13:03;;;;;;;1.07;0.70;;;;;;;4.93;100.00;94705.47;5053090;28;20267;-64
2022/12/01 00:15:33;;;;;;;1.60;0.40;;;;;;;4.88;100.00;94694.09;5053053;28;20210;-63
2022/12/01 00:17:58;;;;;;;0.70;0.30;;;;;;;4.92;100.00;94706.41;5052835;28;20197;-64
2022/12/01 00:20:24;;;;;;;0.50;0.50;;;;;;;4.85;100.00;94685.00;5053455;28;20253;-64
2022/12/01 00:22:49;;;;;;;0.40;0.40;;;;;;;4.85;100.00;94669.06;5035217;28;20191;-64
2022/12/01 00:25:17;;;;;;;1.00;0.30;;;;;;;4.96;100.00;94681.81;5053241;28;20213;-64
2022/12/01 00:27:46;;;;;;;0.70;0.43;;;;;;;4.92;100.00;94676.19;5035006;28;20326;-64
2022/12/01 00:30:12;;;;;;;0.40;0.40;;;;;;;4.94;100.00;94686.16;5035152;28;20220;-65
2022/12/01 00:32:37;;;;;;;0.40;0.40;;;;;;;4.98;100.00;94685.88;5035030;28;20185;-64
2022/12/01 00:35:04;;;;;;;0.43;0.40;;;;;;;4.89;100.00;94683.91;5052675;28;20235;-61
2022/12/01 00:37:31;;;;;;;0.30;0.30;;;;;;;4.88;100.00;94676.47;5052770;28;20271;-60
2022/12/01 00:39:57;;;;;;;0.50;0.50;;;;;;;4.93;100.00;94690.38;5052494;28;20211;-59
2022/12/01 00:42:23;;;;;;;0.37;0.30;;;;;;;4.87;100.00;94692.47;5052649;28;20196;-60
2022/12/01 00:44:48;;;;;;;0.60;0.40;;;;;;;4.93;100.00;94692.88;5053023;28;20619;-65
2022/12/01 00:47:14;;;;;;;1.37;0.40;;;;;;;4.90;100.00;94677.16;5052430;28;20712;-63
2022/12/01 00:49:39;;;;;;;2.00;0.30;;;;;;;4.86;100.00;94679.06;5051833;28;20223;-64
2022/12/01 00:52:06;;;;;;;0.37;0.37;;;;;;;4.87;100.00;94673.13;5078550;22;20302;-64
2022/12/01 00:54:31;;;;;;;0.30;0.30;;;;;;;4.90;100.00;94669.63;5072550;28;20716;-64
2022/12/01 00:56:58;;;;;;;0.77;0.40;;;;;;;4.79;100.00;94661.91;5072450;28;20183;-64
2022/12/01 00:59:23;;;;;;;0.30;0.30;;;;;;;4.88;100.00;94663.88;5072512;28;20215;-63
2022/12/01 01:01:55;;;;;;;0.40;0.40;;;;;;;4.97;100.00;94664.09;5072328;28;20287;-62
2022/12/01 01:04:21;;;;;;;0.40;0.40;;;;;;;4.95;100.00;94670.94;5072602;28;20223;-65
2022/12/01 01:06:47;;;;;;;0.63;0.50;;;;;;;4.95;100.00;94681.00;5072470;28;20227;-60
2022/12/01 01:09:13;;;;;;;0.60;0.50;;;;;;;4.89;100.00;94678.88;5054213;28;20216;-63
2022/12/01 01:11:39;;;;;;;0.60;0.53;;;;;;;4.95;100.00;94675.97;5054490;28;20324;-63
2022/12/01 01:14:05;;;;;;;0.57;0.40;;;;;;;4.99;100.00;94662.28;5072021;28;20211;-63
2022/12/01 01:16:31;;;;;;;0.70;0.40;;;;;;;4.97;100.00;94663.28;5079453;22;20611;-63
2022/12/01 01:18:57;;;;;;;0.70;0.60;;;;;;;4.94;100.00;94669.34;5072144;28;20567;-64
2022/12/01 01:21:23;;;;;;;0.50;0.47;;;;;;;4.98;100.00;94659.88;5072169;28;20202;-60
2022/12/01 01:23:50;;;;;;;0.80;0.37;;;;;;;5.06;100.00;94662.72;5072062;28;20192;-64
2022/12/01 01:26:28;;;;;;;0.50;0.30;;;;;;;4.99;100.00;94667.31;5054204;28;20277;-60
2022/12/01 01:28:57;;;;;;;0.77;0.37;;;;;;;4.93;100.00;94641.72;5072116;28;20290;-64
2022/12/01 01:31:25;;;;;;;0.40;0.40;;;;;;;4.91;100.00;94626.69;5072023;28;20262;-64
2022/12/01 01:33:51;;;;;;;0.30;0.30;;;;;;;4.85;100.00;94634.63;5071867;28;20732;-65
2022/12/01 01:36:18;;;;;;;0.23;0.23;;;;;;;4.97;100.00;94623.78;5072290;28;20276;-61
2022/12/01 01:38:44;;;;;;;0.50;0.50;;;;;;;4.95;100.00;94618.03;5071892;28;20187;-60
2022/12/01 01:41:10;;;;;;;0.30;0.30;;;;;;;5.00;100.00;94621.09;5072031;28;20207;-64
2022/12/01 01:43:57;;;;;;;1.13;0.33;;;;;;;4.96;100.00;94626.41;5071763;28;20268;-62
2022/12/01 01:46:28;;;;;;;0.40;0.30;;;;;;;4.94;100.00;94623.19;5053691;28;20196;-60
2022/12/01 01:49:01;;;;;;;0.30;0.30;;;;;;;4.99;100.00;94632.06;5070436;28;20652;-65
2022/12/01 01:51:34;;;;;;;2.53;0.37;;;;;;;5.05;100.00;94635.88;5071907;28;20317;-64
2022/12/01 01:54:05;;;;;;;0.70;0.40;;;;;;;5.00;100.00;94630.34;5071620;28;20679;-64
2022/12/01 01:56:31;;;;;;;0.40;0.40;;;;;;;4.94;100.00;94636.59;5072365;28;20674;-61
2022/12/01 01:58:57;;;;;;;1.70;0.40;;;;;;;4.93;100.00;94619.84;5071269;28;20252;-59
2022/12/01 02:01:23;;;;;;;0.20;0.20;;;;;;;4.93;100.00;94619.03;5071357;28;20197;-64
2022/12/01 02:03:51;;;;;;;0.20;0.20;;;;;;;4.99;100.00;94629.53;5071542;28;20677;-64
2022/12/01 02:06:16;;;;;;;1.33;0.30;;;;;;;5.02;100.00;94631.88;5071291;28;20203;-65
2022/12/01 02:08:45;;;;;;;0.40;0.40;;;;;;;4.94;100.00;94616.44;5071534;28;20185;-60
2022/12/01 02:11:48;;;;;;;0.20;0.20;;;;;;;4.99;100.00;94606.06;5071632;28;20191;-63
2022/12/01 02:14:58;;;;;;;0.90;0.23;;;;;;;4.96;100.00;94609.59;5046655;28;20230;-64
2022/12/01 02:17:43;;;;;;;0.30;0.30;;;;;;;4.96;100.00;94611.31;5067070;28;20210;-64
2022/12/01 02:20:30;;;;;;;0.30;0.30;;;;;;;5.13;100.00;94624.44;5071371;28;20209;-66
2022/12/01 02:23:41;;;;;;;0.30;0.30;;;;;;;5.04;100.00;94604.06;5071223;28;20187;-60
2022/12/01 02:26:28;;;;;;;0.67;0.37;;;;;;;4.98;100.00;94615.34;5071192;28;20222;-60
2022/12/01 02:29:02;;;;;;;0.60;0.40;;;;;;;4.95;100.00;94609.69;5053311;28;20285;-64
2022/12/01 02:31:44;;;;;;;0.20;0.20;;;;;;;5.05;100.00;94611.50;5071185;28;20220;-60
2022/12/01 02:34:26;;;;;;;0.77;0.40;;;;;;;4.98;100.00;94600.22;5053092;28;20203;-64
2022/12/01 02:37:14;;;;;;;0.30;0.30;;;;;;;5.01;100.00;94597.50;5071745;28;20277;-65
2022/12/01 02:39:52;;;;;;;1.10;0.33;;;;;;;4.96;100.00;94607.09;5070878;28;20589;-63
2022/12/01 02:42:58;;;;;;;0.27;0.27;;;;;;;4.97;100.00;94603.66;5071303;28;20184;-64
2022/12/01 02:45:50;;;;;;;0.40;0.30;;;;;;;4.93;100.00;94594.66;5065452;28;20226;-64
2022/12/01 02:48:34;;;;;;;0.63;0.40;;;;;;;4.86;100.00;94598.50;5070783;28;20681;-66
2022/12/01 02:51:13;;;;;;;0.60;0.30;;;;;;;4.86;100.00;94597.69;5070714;28;20209;-63
2022/12/01 02:53:38;;;;;;;1.10;0.30;;;;;;;4.93;100.00;94606.44;5070712;28;20191;-65
2022/12/01 02:56:08;;;;;;;0.30;0.30;;;;;;;4.93;100.00;94604.75;5070629;28;20352;-66
2022/12/01 02:58:34;;;;;;;0.43;0.10;;;;;;;5.01;100.00;94600.03;5070906;28;20190;-64
2022/12/01 03:01:18;;;;;;;0.30;0.30;;;;;;;5.03;100.00;94598.22;5070815;28;20224;-64
2022/12/01 03:04:07;;;;;;;0.30;0.20;;;;;;;5.02;100.00;94601.66;5070603;28;20184;-65
2022/12/01 03:06:48;;;;;;;0.30;0.30;;;;;;;5.09;100.00;94602.84;5070761;28;20266;-63
2022/12/01 03:09:23;;;;;;;0.30;0.30;;;;;;;5.03;100.00;94610.81;5070810;28;20219;-65
2022/12/01 03:12:09;;;;;;;0.37;0.37;;;;;;;5.06;100.00;94604.78;5071799;28;20187;-64
2022/12/01 03:14:59;;;;;;;0.40;0.20;;;;;;;4.89;100.00;94605.84;5074624;28;20697;-66
2022/12/01 03:17:51;;;;;;;1.00;0.20;;;;;;;5.03;100.00;94612.50;5074009;28;20195;-65
2022/12/01 03:20:30;;;;;;;0.83;0.30;;;;;;;4.99;100.00;94608.56;5063027;28;20231;-65
2022/12/01 03:23:03;;;;;;;0.47;0.20;;;;;;;5.01;100.00;94606.75;5074067;28;20188;-64
2022/12/01 03:25:30;;;;;;;0.43;0.30;;;;;;;4.96;100.00;94599.53;5055876;28;20590;-60
2022/12/01 03:27:59;;;;;;;1.40;0.20;;;;;;;5.03;100.00;94615.03;5055787;28;20214;-60
2022/12/01 03:30:27;;;;;;;0.40;0.40;;;;;;;5.03;100.00;94622.59;5073750;28;20626;-65
2022/12/01 03:33:27;;;;;;;0.30;0.30;;;;;;;5.09;100.00;94615.44;5073918;28;20602;-63
2022/12/01 03:36:00;;;;;;;0.23;0.23;;;;;;;4.90;100.00;94612.50;5073810;28;20245;-63
2022/12/01 03:38:27;;;;;;;0.63;0.30;;;;;;;4.95;100.00;94617.22;5073667;28;20188;-63
2022/12/01 03:41:05;;;;;;;0.50;0.30;;;;;;;4.99;100.00;94616.13;5073817;28;20570;-66
2022/12/01 03:43:39;;;;;;;0.67;0.30;;;;;;;5.06;100.00;94623.22;5074243;28;20189;-60
2022/12/01 03:46:14;;;;;;;0.20;0.20;;;;;;;4.98;100.00;94617.88;5073698;28;20241;-61
2022/12/01 03:48:41;;;;;;;2.07;0.20;;;;;;;5.00;100.00;94613.53;5056236;28;20614;-64
2022/12/01 03:51:18;;;;;;;0.40;0.20;;;;;;;5.00;100.00;94623.63;5055801;28;20238;-59
2022/12/01 03:53:59;;;;;;;0.33;0.20;;;;;;;4.97;100.00;94607.88;5073366;28;20535;-65
2022/12/01 03:56:32;;;;;;;0.30;0.30;;;;;;;4.91;100.00;94614.09;5073541;28;20213;-64
2022/12/01 03:59:01;;;;;;;0.30;0.30;;;;;;;4.86;100.00;94605.22;5073470;28;20666;-64
2022/12/01 04:01:34;;;;;;;0.50;0.30;;;;;;;4.76;100.00;94579.84;5073368;28;20201;-65
2022/12/01 04:04:11;;;;;;;0.20;0.20;;;;;;;4.78;100.00;94590.63;5073442;28;20187;-60
2022/12/01 04:06:39;;;;;;;0.87;0.33;;;;;;;4.79;100.00;94584.66;5073038;28;20279;-65
2022/12/01 04:09:04;;;;;;;0.40;0.30;;;;;;;4.71;100.00;94596.13;5073177;28;20242;-65
2022/12/01 04:14:13;;;;;;;0.20;0.20;;;;;;;4.81;100.00;94592.94;5073189;28;20657;-63
2022/12/01 04:16:39;;;;;;;0.20;0.20;;;;;;;4.77;100.00;94595.72;5073477;28;20203;-67
2022/12/01 04:19:04;;;;;;;0.10;0.10;;;;;;;4.62;100.00;94597.53;5073368;28;20213;-64
2022/12/01 04:21:30;;;;;;;0.50;0.50;;;;;;;4.70;100.00;94594.53;5073171;28;20260;-64
2022/12/01 04:24:01;;;;;;;0.27;0.27;;;;;;;4.69;100.00;94603.78;5072784;28;20551;-60
2022/12/01 04:26:32;;;;;;;0.40;0.40;;;;;;;4.65;100.00;94599.03;5073281;28;20190;-65
2022/12/01 04:29:01;;;;;;;0.20;0.20;;;;;;;4.65;100.00;94594.81;5073011;28;20272;-64
2022/12/01 04:31:27;;;;;;;0.40;0.40;;;;;;;4.66;100.00;94590.59;5055067;28;20198;-64
2022/12/01 04:33:59;;;;;;;0.30;0.30;;;;;;;4.76;100.00;94601.69;5072811;28;20266;-64
2022/12/01 04:36:29;;;;;;;1.53;0.30;;;;;;;4.60;100.00;94603.56;5073090;28;20724;-60
2022/12/01 04:38:54;;;;;;;0.43;0.40;;;;;;;4.60;100.00;94601.03;5054760;28;20219;-65
2022/12/01 04:41:20;;;;;;;1.90;0.30;;;;;;;4.64;100.00;94610.00;5072903;28;20254;-65
2022/12/01 04:43:45;;;;;;;1.40;0.37;;;;;;;4.59;100.00;94605.25;5054677;28;20671;-66
2022/12/01 04:46:11;;;;;;;0.60;0.47;;;;;;;4.56;100.00;94613.00;5072752;28;20177;-64
2022/12/01 04:48:37;;;;;;;0.47;0.40;;;;;;;4.62;100.00;94606.78;5072880;28;20213;-64
2022/12/01 04:51:05;;;;;;;0.37;0.37;;;;;;;4.68;100.00;94607.22;5054636;28;20215;-64
2022/12/01 04:53:30;;;;;;;2.07;0.37;;;;;;;4.58;100.00;94605.34;5072487;28;20762;-65
2022/12/01 04:55:55;;;;;;;0.53;0.30;;;;;;;4.52;100.00;94613.28;5072503;28;20283;-60
2022/12/01 04:58:21;;;;;;;0.70;0.50;;;;;;;4.54;100.00;94614.00;5054425;28;20198;-64
2022/12/01 05:00:46;;;;;;;0.93;0.40;;;;;;;4.43;100.00;94599.56;5072459;28;20360;-64
2022/12/01 05:03:12;;;;;;;0.53;0.50;;;;;;;4.43;100.00;94601.25;5072305;28;20188;-65
2022/12/01 05:05:38;;;;;;;1.10;0.50;;;;;;;4.36;100.00;94593.31;5072203;28;20209;-65
2022/12/01 05:08:03;;;;;;;0.40;0.40;;;;;;;4.45;100.00;94602.78;5072486;28;20209;-64
2022/12/01 05:10:29;;;;;;;0.30;0.30;;;;;;;4.46;100.00;94601.91;5072201;28;20210;-64
2022/12/01 05:12:56;;;;;;;0.43;0.40;;;;;;;4.50;100.00;94608.34;5054338;28;20191;-65
2022/12/01 05:15:22;;;;;;;0.40;0.40;;;;;;;4.32;100.00;94608.69;5072278;28;20231;-64
2022/12/01 05:17:47;;;;;;;0.50;0.40;;;;;;;4.36;100.00;94617.66;5072331;28;20188;-64
2022/12/01 05:23:08;;;;;;;0.80;0.50;;;;;;;4.31;100.00;94617.91;5072024;28;20201;-63
2022/12/01 05:25:36;;;;;;;2.77;1.70;;;;;;;4.13;100.00;94616.53;5053835;28;20212;-65
2022/12/01 05:28:02;;;;;;;1.10;1.00;;;;;;;4.30;100.00;94611.28;5053862;28;20217;-65
2022/12/01 05:30:27;;;;;;;3.70;1.80;;;;;;;4.33;100.00;94611.09;5053764;28;20242;-64
2022/12/01 05:32:52;;;;;;;1.10;1.00;;;;;;;4.32;100.00;94611.19;5071827;28;20286;-63
2022/12/01 05:35:18;;;;;;;0.67;0.60;;;;;;;4.44;100.00;94615.47;5071113;28;20205;-62
2022/12/01 05:37:43;;;;;;;1.33;0.60;;;;;;;4.32;100.00;94618.75;5081102;22;20316;-64
2022/12/01 05:40:09;;;;;;;1.40;0.60;;;;;;;4.32;100.00;94609.50;5071708;28;20212;-65
2022/12/01 05:42:35;;;;;;;0.43;0.43;;;;;;;4.41;100.00;94618.97;5071954;28;20554;-65
2022/12/01 05:45:00;;;;;;;0.87;0.50;;;;;;;4.49;100.00;94621.81;5071643;28;20208;-59
2022/12/01 05:47:26;;;;;;;0.67;0.67;;;;;;;4.41;100.00;94624.00;5071824;28;20214;-64
2022/12/01 05:49:51;;;;;;;1.07;0.93;;;;;;;4.39;100.00;94625.00;5071527;28;20692;-65
2022/12/01 05:52:16;;;;;;;1.83;0.63;;;;;;;4.46;100.00;94624.53;5071643;28;20552;-65
2022/12/01 05:54:42;;;;;;;1.37;0.80;;;;;;;4.51;100.00;94629.28;5071536;28;20206;-66
2022/12/01 05:57:08;;;;;;;0.80;0.77;;;;;;;4.70;100.00;94629.75;5053595;28;20271;-65
2022/12/01 05:59:33;;;;;;;1.10;0.80;;;;;;;4.93;100.00;94640.00;5071354;28;20211;-64
2022/12/01 06:01:58;;;;;;;1.13;0.80;;;;;;;4.95;100.00;94660.84;5071337;28;20202;-66
2022/12/01 06:04:24;;;;;;;1.00;0.80;;;;;;;5.13;100.00;94664.72;5070950;28;20700;-63
2022/12/01 06:06:49;;;;;;;1.00;0.90;;;;;;;5.24;100.00;94679.19;5061504;22;20214;-61
2022/12/01 06:09:15;;;;;;;2.53;1.60;;;;;;;5.28;100.00;94682.31;5070366;28;20214;-65
2022/12/01 06:11:41;;;;;;;2.43;0.90;;;;;;;5.48;100.00;94681.84;5071251;28;20199;-65
2022/12/01 06:14:06;;;;;;;0.83;0.83;;;;;;;5.56;100.00;94693.03;5071158;28;21129;-67
2022/12/01 06:16:31;;;;;;;1.00;0.63;;;;;;;5.31;100.00;94672.84;5071085;28;20194;-65
2022/12/01 06:18:57;;;;;;;1.20;0.70;;;;;;;5.35;100.00;94676.78;5070995;28;20180;-65
2022/12/01 06:21:22;;;;;;;0.70;0.67;;;;;;;5.33;100.00;94675.28;5071101;28;20204;-61
2022/12/01 06:23:48;;;;;;;1.27;0.80;;;;;;;5.32;100.00;94668.59;5070908;28;20191;-61
2022/12/01 06:26:13;;;;;;;4.53;1.43;;;;;;;5.16;100.00;94658.69;5071020;28;20711;-67
2022/12/01 06:28:39;;;;;;;2.07;1.43;;;;;;;5.04;100.00;94655.25;5071169;28;20208;-64
2022/12/01 06:31:04;;;;;;;1.67;1.10;;;;;;;4.81;100.00;94633.22;5070723;28;20243;-61
2022/12/01 06:33:30;;;;;;;1.83;0.90;;;;;;;4.72;100.00;94626.25;5070976;28;20666;-66
2022/12/01 06:35:58;;;;;;;1.13;1.03;;;;;;;4.70;100.00;94625.53;5070837;28;20196;-65
2022/12/01 06:38:23;;;;;;;2.00;1.57;;;;;;;4.67;100.00;94625.72;5070986;28;20231;-66
2022/12/01 06:40:49;;;;;;;0.57;0.57;;;;;;;4.64;100.00;94615.84;5052730;28;20236;-66
2022/12/01 06:43:14;;;;;;;2.77;0.90;;;;;;;4.60;100.00;94621.16;5071171;28;20195;-66
2022/12/01 06:45:40;;;;;;;2.63;0.73;;;;;;;4.59;100.00;94632.94;5069963;28;20217;-65
2022/12/01 06:48:05;;;;;;;3.43;0.87;;;;;;;4.56;100.00;94630.63;5070572;28;20274;-65
2022/12/01 06:50:31;;;;;;;1.73;1.00;;;;;;;4.52;100.00;94630.91;5070755;28;20747;-65
2022/12/01 06:52:56;;;;;;;2.17;1.20;;;;;;;4.63;100.00;94646.94;5070867;28;20252;-64
2022/12/01 06:55:22;;;;;;;1.07;0.63;;;;;;;4.63;100.00;94643.63;5064118;23;20223;-62
2022/12/01 06:57:48;;;;;;;2.10;1.20;;;;;;;4.54;100.00;94639.16;5070637;28;20192;-65
2022/12/01 07:00:14;;;;;;;2.83;1.00;;;;;;;4.52;100.00;94626.69;5070881;28;20212;-65
2022/12/01 07:02:39;;;;;;;0.80;0.80;;;;;;;4.50;100.00;94632.72;5052364;28;20578;-63
2022/12/01 07:05:05;;;;;;;1.10;0.67;;;;;;;4.51;100.00;94626.75;5070122;28;20222;-64
2022/12/01 07:07:30;;;;;;;1.80;1.03;;;;;;;4.38;100.00;94621.69;5070546;28;20647;-61
2022/12/01 07:09:56;;;;;;;1.23;0.90;;;;;;;4.40;100.00;94622.41;5070595;28;20270;-66
2022/12/01 07:12:21;;;;;;;1.50;0.90;;;;;;;4.43;100.00;94631.44;5070531;28;20211;-65
2022/12/01 07:14:46;;;;;;;1.20;0.90;;;;;;;4.38;100.00;94639.31;5052495;28;20733;-64
2022/12/01 07:17:12;;;;;;;2.63;1.33;;;;;;;4.43;100.00;94631.44;5070289;28;20179;-64
2022/12/01 07:19:37;;;;;;;2.30;1.00;;;;;;;4.46;100.00;94636.31;5070158;28;20209;-67
2022/12/01 07:22:03;;;;;;;3.07;1.23;;;;;;;4.45;100.00;94638.00;5077761;22;20209;-61
2022/12/01 07:24:29;;;;;;;2.57;1.47;;;;;;;4.36;100.00;94647.84;5070012;28;20215;-60
2022/12/01 07:26:55;;;;;;;2.00;1.50;;;;;;;4.43;100.00;94657.44;5070024;28;20205;-64
2022/12/01 07:29:20;;;;;;;1.33;0.60;;;;;;;4.33;100.00;94645.50;5069996;28;20194;-64
2022/12/01 07:31:46;;;;;;;0.90;0.73;;;;;;;4.27;100.00;94646.69;5070177;28;20583;-63
2022/12/01 07:34:12;;;;;;;0.87;0.77;;;;;;;4.27;100.00;94631.59;5069922;28;20205;-64
2022/12/01 07:36:38;;;;;;;1.03;0.70;;;;;;;4.24;100.00;94629.28;5068680;28;20189;-65
2022/12/01 07:39:06;;;;;;;1.43;0.70;;;;;;;4.31;100.00;94644.78;5069863;28;20233;-64
2022/12/01 07:41:32;;;;;;;0.70;0.70;;;;;;;4.32;100.00;94646.41;5052027;28;20197;-64
2022/12/01 07:43:58;;;;;;;1.43;0.70;;;;;;;4.39;100.00;94655.19;5070097;28;20706;-61
2022/12/01 07:46:25;;;;;;;1.47;1.00;;;;;;;4.42;100.00;94648.28;5052039;28;20214;-65
2022/12/01 07:48:52;;;;;;;1.57;0.80;;;;;;;4.36;100.00;94648.66;5069915;28;20184;-66
2022/12/01 07:51:19;;;;;;;1.33;0.93;;;;;;;4.38;100.00;94643.53;5069827;28;20205;-65
2022/12/01 07:53:46;;;;;;;1.00;0.97;;;;;;;4.37;100.00;94649.44;5051861;28;20277;-66
2022/12/01 07:56:11;;;;;;;3.07;0.90;;;;;;;4.36;100.00;94647.84;5070327;28;20194;-60
2022/12/01 07:58:37;;;;;;;1.00;0.60;;;;;;;4.20;100.00;94640.44;5054052;28;20239;-62
2022/12/01 08:01:17;;;;;;;0.83;0.60;;;;;;;4.22;100.00;94636.09;5072982;28;20289;-65
2022/12/01 08:03:43;;;;;;;0.97;0.53;;;;;;;4.28;100.00;94641.56;5055139;28;20674;-66
2022/12/01 08:06:09;;;;;;;2.17;0.93;;;;;;;4.09;100.00;94612.59;5073349;28;20296;-66
2022/12/01 08:08:37;;;;;;;0.97;0.63;;;;;;;4.24;100.00;94635.09;5072953;28;20215;-64
2022/12/01 08:11:05;;;;;;;3.13;0.70;;;;;;;4.33;100.00;94646.31;5073012;28;20217;-66
2022/12/01 08:13:31;;;;;;;1.33;0.83;;;;;;;4.33;100.00;94641.28;5073116;28;20727;-61
2022/12/01 08:15:57;;;;;;;2.20;1.03;;;;;;;4.31;100.00;94645.59;5072813;28;20223;-65
2022/12/01 08:18:23;;;;;;;2.73;1.13;;;;;;;4.40;100.00;94645.06;5054905;28;20190;-66
2022/12/01 08:20:49;;;;;;;2.07;1.13;;;;;;;4.19;100.00;94639.59;5073411;28;20216;-60
2022/12/01 08:23:15;;;;;;;2.57;0.90;;;;;;;4.35;100.00;94642.00;5073039;28;20177;-60
2022/12/01 08:25:40;;;;;;;1.20;0.97;;;;;;;4.32;100.00;94643.91;5073190;28;20215;-66
2022/12/01 08:28:06;;;;;;;1.33;0.87;;;;;;;4.42;100.00;94643.25;5072940;28;20207;-61
2022/12/01 08:30:31;;;;;;;2.27;0.77;;;;;;;4.46;100.00;94647.19;5071779;28;20213;-65
2022/12/01 08:32:57;;;;;;;2.63;0.83;;;;;;;4.52;100.00;94656.06;5072870;28;20180;-65
2022/12/01 08:35:24;;;;;;;1.00;0.90;;;;;;;4.42;100.00;94648.28;5072913;28;20718;-64
2022/12/01 08:37:53;;;;;;;2.53;1.00;;;;;;;4.45;100.00;94645.56;5072807;28;20185;-65
2022/12/01 08:40:20;;;;;;;1.90;0.93;;;;;;;4.48;100.00;94642.88;5072533;28;20237;-65
2022/12/01 08:42:45;;;;;;;1.17;0.80;;;;;;;4.55;100.00;94644.09;5072670;28;20184;-64
2022/12/01 08:45:10;;;;;;;1.33;0.90;;;;;;;4.59;100.00;94644.72;5072699;28;20277;-64
2022/12/01 08:47:36;;;;;;;1.00;0.83;;;;;;;4.67;100.00;94650.06;5054388;28;20237;-65
2022/12/01 08:50:03;;;;;;;3.60;2.20;;;;;;;4.67;100.00;94642.53;5072474;28;20210;-65
2022/12/01 08:52:33;;;;;;;2.70;1.30;;;;;;;4.66;100.00;94640.94;5071259;28;20179;-65
2022/12/01 08:54:58;;;;;;;1.23;1.10;;;;;;;4.63;100.00;94648.66;5072502;28;20222;-60
2022/12/01 08:57:24;;;;;;;2.13;0.80;;;;;;;4.67;100.00;94653.41;5054425;28;20662;-64
2022/12/01 08:59:49;;;;;;;1.50;1.23;;;;;;;4.62;100.00;94642.84;5072330;28;20252;-65
2022/12/01 09:02:17;;;;;;;1.10;1.00;;;;;;;4.84;100.00;94668.28;5072356;28;20181;-65
2022/12/01 09:04:43;;;;;;;2.27;1.10;;;;;;;4.77;100.00;94654.44;5072384;28;20219;-64
2022/12/01 09:07:10;;;;;;;3.03;0.87;;;;;;;4.78;100.00;94643.50;5054193;28;20215;-65
2022/12/01 09:09:36;;;;;;;1.63;0.67;;;;;;;4.80;100.00;94648.44;5053328;28;20213;-65
2022/12/01 09:12:02;;;;;;;0.73;0.63;;;;;;;4.73;100.00;94630.38;5072024;28;20239;-65
2022/12/01 09:14:27;;;;;;;1.80;1.00;;;;;;;4.91;100.00;94646.03;5071895;28;20223;-65
2022/12/01 09:16:53;;;;;;;1.13;0.83;;;;;;;4.89;100.00;94638.59;5071994;28;20262;-65
2022/12/01 09:19:19;;;;;;;0.93;0.83;;;;;;;4.69;100.00;94641.53;5054003;28;20255;-65
2022/12/01 09:21:46;;;;;;;2.10;1.30;;;;;;;4.80;100.00;94651.75;5071887;28;20285;-65
2022/12/01 09:24:13;;;;;;;0.70;0.70;;;;;;;4.81;100.00;94638.25;5071965;28;20222;-65
2022/12/01 09:26:40;;;;;;;1.43;0.80;;;;;;;4.90;100.00;94640.22;5071941;28;20617;-65
2022/12/01 09:29:08;;;;;;;1.30;0.90;;;;;;;5.09;100.00;94635.59;5071674;28;20205;-64
2022/12/01 09:31:34;;;;;;;1.77;1.10;;;;;;;5.10;100.00;94643.97;5071855;28;20580;-60
2022/12/01 09:34:05;;;;;;;3.10;1.17;;;;;;;4.98;100.00;94630.47;5054144;28;20247;-65
2022/12/01 09:36:32;;;;;;;1.37;0.87;;;;;;;5.03;100.00;94641.03;5072071;28;20189;-65
2022/12/01 09:38:57;;;;;;;2.57;1.17;;;;;;;5.07;100.00;94639.94;5071916;28;20656;-60
2022/12/01 09:42:01;;;;;;;1.00;0.77;;;;;;;5.05;100.00;94636.72;5072026;28;20199;-61
2022/12/01 09:44:30;;;;;;;1.33;1.10;;;;;;;5.16;100.00;94642.78;5044434;28;20340;-60
2022/12/01 09:47:28;;;;;;;1.30;1.07;;;;;;;5.25;100.00;94647.25;5071632;28;20261;-65
2022/12/01 09:50:01;;;;;;;0.77;0.70;;;;;;;5.16;100.00;94632.69;5071948;28;20216;-66
2022/12/01 09:52:32;;;;;;;3.10;0.90;;;;;;;5.17;100.00;94632.63;5071703;28;20187;-66
2022/12/01 09:54:59;;;;;;;3.27;1.13;;;;;;;5.13;100.00;94625.34;5071823;28;20306;-64
2022/12/01 09:57:32;;;;;;;1.57;0.97;;;;;;;5.11;100.00;94602.75;5071470;28;20192;-66
2022/12/01 10:00:01;;;;;;;1.30;1.07;;;;;;;5.23;100.00;94606.22;5078790;22;20763;-65
2022/12/01 10:02:47;;;;;;;2.13;1.10;;;;;;;5.15;100.00;94615.97;5071682;28;20642;-62
2022/12/01 10:05:19;;;;;;;1.17;1.00;;;;;;;5.18;100.00;94601.47;5071701;28;20219;-61
2022/12/01 10:07:48;;;;;;;9.80;1.67;;;;;;;5.23;100.00;94612.06;5071441;28;20690;-60
2022/12/01 10:10:17;;;;;;;0.93;0.70;;;;;;;5.13;100.00;94601.75;5071269;28;20227;-65
2022/12/01 10:12:45;;;;;;;0.93;0.70;;;;;;;5.26;100.00;94598.44;5071288;28;20187;-65
2022/12/01 10:15:39;;;;;;;0.67;0.60;;;;;;;5.27;100.00;94605.94;5071350;28;20207;-65
2022/12/01 10:18:32;;;;;;;1.30;0.83;;;;;;;5.41;100.00;94610.06;5071860;28;20645;-65
2022/12/01 10:21:22;;;;;;;0.50;0.50;;;;;;;5.31;100.00;94609.84;5070890;28;20206;-66
2022/12/01 10:24:09;;;;;;;1.60;0.50;;;;;;;5.33;100.00;94622.34;5070599;28;20198;-59
2022/12/01 10:27:05;;;;;;;0.80;0.77;;;;;;;5.34;100.00;94619.72;5070581;28;20267;-61
2022/12/01 10:29:41;;;;;;;2.20;1.63;;;;;;;5.32;100.00;94621.53;5039620;28;20219;-64
2022/12/01 10:32:34;;;;;;;0.90;0.70;;;;;;;5.32;100.00;94619.00;5070869;28;20176;-64
2022/12/01 10:34:59;;;;;;;0.97;0.60;;;;;;;5.35;100.00;94615.50;5070442;28;20216;-64
2022/12/01 10:37:28;;;;;;;0.70;0.70;;;;;;;5.33;100.00;94624.88;5052678;28;20179;-64
2022/12/01 10:39:55;;;;;;;1.40;0.90;;;;;;;5.13;100.00;94602.69;5070278;28;20208;-65
2022/12/01 10:42:29;;;;;;;0.60;0.60;;;;;;;5.05;100.00;94611.50;5069987;28;20211;-64
2022/12/01 10:44:58;;;;;;;0.97;0.60;;;;;;;5.10;100.00;94608.72;5070504;28;20207;-64
2022/12/01 10:47:26;;;;;;;3.57;1.10;;;;;;;5.08;100.00;94626.44;5070316;28;20236;-64
2022/12/01 10:49:52;;;;;;;0.70;0.70;;;;;;;5.17;100.00;94614.16;5070476;28;20214;-64
2022/12/01 10:52:39;;;;;;;1.03;0.70;;;;;;;5.04;100.00;94599.84;5052566;28;20313;-66
2022/12/01 10:55:23;;;;;;;1.50;0.73;;;;;;;5.16;100.00;94605.78;5070335;28;20211;-61
2022/12/01 10:57:50;;;;;;;0.43;0.43;;;;;;;5.00;100.00;94627.84;5070388;28;20169;-61
2022/12/01 11:00:57;;;;;;;1.33;0.50;;;;;;;5.10;100.00;94616.25;5077919;22;20224;-61
2022/12/01 11:03:27;;;;;;;0.80;0.60;;;;;;;5.07;100.00;94602.16;5041162;28;20203;-61
2022/12/01 11:05:56;;;;;;;0.97;0.83;;;;;;;5.03;100.00;94595.69;5077719;22;20236;-65
2022/12/01 11:08:44;;;;;;;2.03;1.00;;;;;;;5.19;100.00;94607.31;5035990;28;20741;-66
2022/12/01 11:11:42;;;;;;;1.13;0.77;;;;;;;5.19;100.00;94599.75;5050602;28;20637;-66
2022/12/01 11:14:19;;;;;;;4.73;1.40;;;;;;;5.10;100.00;94601.97;5038243;28;20234;-62
2022/12/01 11:16:47;;;;;;;2.17;0.80;;;;;;;5.15;100.00;94610.94;5050406;28;20195;-68
2022/12/01 11:19:13;;;;;;;1.37;0.80;;;;;;;5.00;100.00;94605.16;5050433;28;20208;-61
2022/12/01 11:21:52;;;;;;;2.03;0.70;;;;;;;5.05;100.00;94583.81;5050259;28;20185;-64
2022/12/01 11:24:41;;;;;;;1.10;0.83;;;;;;;5.07;100.00;94588.75;5050328;28;20281;-66
2022/12/01 11:27:22;;;;;;;1.13;0.83;;;;;;;5.16;100.00;94603.28;5049993;28;20295;-65
2022/12/01 11:29:51;;;;;;;1.27;0.97;;;;;;;5.21;100.00;94587.88;5075627;22;20231;-62
2022/12/01 11:32:23;;;;;;;1.03;0.60;;;;;;;5.14;100.00;94602.56;5070839;28;20195;-66
2022/12/01 11:34:55;;;;;;;0.73;0.50;;;;;;;5.12;100.00;94606.91;5073851;28;20215;-65
2022/12/01 11:37:25;;;;;;;0.60;0.43;;;;;;;5.05;100.00;94616.56;5074011;28;20190;-64
2022/12/01 11:39:51;;;;;;;1.03;0.60;;;;;;;5.00;100.00;94588.34;5073630;28;20286;-66
2022/12/01 11:42:27;;;;;;;0.57;0.50;;;;;;;4.98;100.00;94591.88;5055858;28;20191;-59
2022/12/01 11:44:56;;;;;;;0.80;0.63;;;;;;;5.11;100.00;94592.66;5073512;28;20320;-61
2022/12/01 11:47:24;;;;;;;1.13;0.70;;;;;;;5.09;100.00;94591.97;5073422;28;20219;-62
2022/12/01 11:49:53;;;;;;;1.33;0.80;;;;;;;5.09;100.00;94586.94;5055238;28;20245;-62
2022/12/01 11:52:26;;;;;;;1.83;0.60;;;;;;;5.06;100.00;94577.06;5073565;28;20212;-66
2022/12/01 11:55:01;;;;;;;0.60;0.60;;;;;;;5.02;100.00;94586.53;5073439;28;20235;-65